Time;durP1;ratioP1;P1;durP2;ratioP2;P2;SDS_P1;SDS_P2;PMS_P1;PMS_P2;Temp;Humidity;BMP_temperature;BMP_pressure;BME280_temperature;BME280_humidity;BME280_pressure;Samples;Min_cycle;Max_cycle;Signal;HPM_P1;HPM_P2
2023/12/04 05:48:53;;;;;;;10.70;6.10;;;;;;;-3.70;100.00;100768.52;109151;1275;23639;-43
2023/12/04 05:51:20;;;;;;;9.30;5.00;;;;;;;-3.69;100.00;100768.06;107533;1272;22693;-51
2023/12/04 05:53:47;;;;;;;8.80;4.90;;;;;;;-3.66;100.00;100780.03;109319;1272;23572;-49
2023/12/04 05:56:13;;;;;;;11.40;6.00;;;;;;;-3.63;100.00;100783.13;109976;1266;22508;-50
2023/12/04 05:58:40;;;;;;;9.80;5.60;;;;;;;-3.60;100.00;100788.98;108907;1269;22556;-49
2023/12/04 06:01:08;;;;;;;11.40;6.40;;;;;;;-3.56;100.00;100794.52;109570;1267;22537;-44
2023/12/04 06:03:36;;;;;;;15.20;7.50;;;;;;;-3.53;100.00;100791.96;109402;1278;22430;-43
2023/12/04 06:06:03;;;;;;;12.30;6.70;;;;;;;-3.49;100.00;100797.34;109787;1272;22222;-42
2023/12/04 06:08:31;;;;;;;9.00;6.00;;;;;;;-3.46;100.00;100798.19;109696;1271;23152;-50
2023/12/04 06:10:58;;;;;;;9.60;6.10;;;;;;;-3.42;99.98;100797.58;109603;1273;22537;-51
2023/12/04 06:13:25;;;;;;;12.50;6.00;;;;;;;-3.41;99.90;100795.48;109951;1269;22267;-50
2023/12/04 06:15:53;;;;;;;9.80;5.70;;;;;;;-3.39;99.87;100792.17;108515;1270;22489;-45
2023/12/04 06:18:22;;;;;;;7.70;4.50;;;;;;;-3.36;99.77;100797.48;108975;1276;23298;-43
2023/12/04 06:20:55;;;;;;;12.20;6.10;;;;;;;-3.33;99.53;100799.70;109715;1271;23007;-53
2023/12/04 06:23:27;;;;;;;8.00;5.10;;;;;;;-3.29;99.48;100806.27;108477;1265;25310;-44
2023/12/04 06:25:57;;;;;;;17.90;8.80;;;;;;;-3.26;99.62;100805.45;109556;1275;23597;-44
2023/12/04 06:28:39;;;;;;;12.90;6.70;;;;;;;-3.24;99.26;100809.33;108888;1273;22458;-50
2023/12/04 06:31:25;;;;;;;9.00;5.40;;;;;;;-3.22;99.36;100811.17;108692;1273;22998;-43
2023/12/04 06:38:41;;;;;;;8.90;5.20;;;;;;;-3.11;98.44;100814.58;109202;1275;22425;-51
2023/12/04 06:45:58;;;;;;;9.40;5.30;;;;;;;-3.03;97.11;100805.40;109774;1273;22342;-44
2023/12/04 06:55:39;;;;;;;9.80;5.60;;;;;;;-2.83;95.35;100807.96;109316;1275;22527;-50
2023/12/04 06:58:07;;;;;;;9.90;4.60;;;;;;;-2.78;94.74;100812.71;109299;1279;24396;-52
2023/12/04 07:00:35;;;;;;;9.70;5.50;;;;;;;-2.75;94.10;100813.26;109105;1272;23135;-44
2023/12/04 07:03:27;;;;;;;8.60;5.20;;;;;;;-2.72;93.90;100812.60;109274;1262;22570;-43
2023/12/04 07:06:48;;;;;;;10.00;5.00;;;;;;;-2.65;93.91;100814.16;108894;1273;22290;-49
2023/12/04 07:10:14;;;;;;;7.70;5.00;;;;;;;-2.57;93.86;100822.03;108946;1276;23807;-44
2023/12/04 07:13:28;;;;;;;12.00;6.80;;;;;;;-2.49;93.58;100823.71;109415;1272;23366;-45
2023/12/04 07:16:21;;;;;;;14.60;6.20;;;;;;;-2.41;92.79;100821.27;108514;1278;23936;-45
2023/12/04 07:19:06;;;;;;;12.20;7.50;;;;;;;-2.39;92.32;100815.57;108473;1278;22221;-44
2023/12/04 07:21:40;;;;;;;10.60;6.30;;;;;;;-2.35;92.26;100816.17;109664;1277;25408;-42
2023/12/04 07:24:08;;;;;;;10.80;6.80;;;;;;;-2.31;91.69;100817.08;108980;1271;22415;-50
2023/12/04 07:26:35;;;;;;;10.20;6.20;;;;;;;-2.30;91.23;100820.42;109548;1269;22170;-49
2023/12/04 07:29:03;;;;;;;11.30;6.50;;;;;;;-2.28;91.13;100823.91;109791;1272;22394;-44
2023/12/04 07:31:30;;;;;;;18.40;11.50;;;;;;;-2.26;91.18;100822.35;109556;1274;22614;-43
2023/12/04 07:34:07;;;;;;;13.40;8.10;;;;;;;-2.19;91.60;100822.06;108783;1277;22626;-49
2023/12/04 07:36:38;;;;;;;10.60;6.80;;;;;;;-2.09;91.31;100820.23;108606;1278;22586;-50
2023/12/04 07:39:12;;;;;;;13.00;6.70;;;;;;;-2.04;90.83;100817.49;108799;1263;22548;-50
2023/12/04 07:41:39;;;;;;;10.20;6.00;;;;;;;-2.00;90.57;100819.59;109252;1278;23483;-44
2023/12/04 07:44:08;;;;;;;8.90;6.40;;;;;;;-1.98;90.32;100826.55;108942;1270;23190;-50
2023/12/04 07:47:24;;;;;;;14.70;6.50;;;;;;;-1.94;90.29;100835.17;108573;1281;22931;-50
2023/12/04 07:50:17;;;;;;;13.20;6.40;;;;;;;-1.89;90.47;100843.17;109152;1279;23294;-44
2023/12/04 07:57:08;;;;;;;13.20;7.10;;;;;;;-1.65;89.89;100842.33;109218;1276;22652;-44
2023/12/04 08:03:43;;;;;;;10.90;7.20;;;;;;;-1.61;88.19;100857.80;109503;1275;23184;-43
2023/12/04 08:06:23;;;;;;;11.50;6.80;;;;;;;-1.57;88.66;100862.11;109222;1275;22922;-51
2023/12/04 08:09:16;;;;;;;14.70;6.50;;;;;;;-1.51;88.43;100872.36;109502;1274;22197;-51
2023/12/04 08:12:17;;;;;;;11.60;7.10;;;;;;;-1.43;88.31;100877.29;108766;1272;22469;-50
2023/12/04 08:15:04;;;;;;;9.50;5.80;;;;;;;-1.28;88.41;100876.59;108910;1279;22420;-49
2023/12/04 08:17:36;;;;;;;15.20;6.50;;;;;;;-1.15;87.56;100881.44;108650;1273;23396;-43
2023/12/04 08:20:07;;;;;;;11.60;6.30;;;;;;;-1.18;86.45;100891.90;108875;1276;23300;-45
2023/12/04 08:22:49;;;;;;;10.90;5.70;;;;;;;-1.24;86.39;100898.07;109229;1272;22452;-48
2023/12/04 08:25:18;;;;;;;11.70;7.20;;;;;;;-1.28;86.38;100898.85;108973;1273;24054;-50
2023/12/04 08:27:53;;;;;;;10.70;6.40;;;;;;;-1.30;86.76;100904.36;108987;1263;22922;-43
2023/12/04 08:30:20;;;;;;;10.20;6.50;;;;;;;-1.32;86.87;100903.10;109581;1278;22411;-49
2023/12/04 08:32:47;;;;;;;9.70;6.90;;;;;;;-1.30;86.39;100906.25;109758;1272;22501;-43
2023/12/04 08:35:14;;;;;;;14.00;8.10;;;;;;;-1.25;86.50;100914.59;109862;1273;22482;-45
2023/12/04 08:37:45;;;;;;;16.60;9.60;;;;;;;-1.20;86.58;100916.64;109168;1263;22566;-44
2023/12/04 08:40:20;;;;;;;11.30;6.50;;;;;;;-1.11;86.91;100915.10;108777;1277;22522;-51
2023/12/04 08:43:23;;;;;;;11.10;6.40;;;;;;;-1.00;87.21;100916.36;109096;1277;27077;-43
2023/12/04 08:47:08;;;;;;;11.40;6.90;;;;;;;-0.91;86.97;100913.27;108955;1275;22597;-51
2023/12/04 08:49:48;;;;;;;9.80;6.40;;;;;;;-0.78;85.89;100910.70;109054;1273;22899;-48
2023/12/04 08:52:55;;;;;;;11.70;6.90;;;;;;;-0.75;85.77;100903.89;108784;1272;23150;-46
2023/12/04 09:04:36;;;;;;;13.10;6.00;;;;;;;-0.55;85.59;100896.05;108586;1277;22544;-49
2023/12/04 09:08:01;;;;;;;10.00;6.30;;;;;;;-0.60;85.92;100901.42;108313;1277;22909;-49
2023/12/04 09:11:14;;;;;;;9.60;5.90;;;;;;;-0.53;84.40;100897.88;108671;1272;22602;-44
2023/12/04 09:13:51;;;;;;;12.10;6.70;;;;;;;-0.47;83.45;100896.13;109338;1280;22893;-51
2023/12/04 09:16:29;;;;;;;10.20;6.80;;;;;;;-0.41;83.05;100897.86;108571;1273;22546;-49
2023/12/04 09:19:11;;;;;;;12.20;7.90;;;;;;;-0.31;83.38;100894.44;109244;1274;22488;-50
2023/12/04 09:21:44;;;;;;;9.90;6.60;;;;;;;-0.24;82.98;100892.42;108595;1271;22229;-44
2023/12/04 09:24:11;;;;;;;10.70;7.00;;;;;;;-0.23;81.86;100898.27;109518;1280;22400;-45
2023/12/04 09:26:38;;;;;;;11.30;7.60;;;;;;;-0.23;81.89;100896.55;109479;1274;24147;-45
2023/12/04 09:29:05;;;;;;;14.30;7.60;;;;;;;-0.20;81.74;100895.70;109458;1277;23010;-51
2023/12/04 09:31:46;;;;;;;10.70;7.50;;;;;;;-0.13;81.79;100901.89;109140;1279;22517;-44
2023/12/04 09:34:38;;;;;;;11.30;7.10;;;;;;;-0.01;81.29;100899.09;109694;1279;22506;-45
2023/12/04 09:37:50;;;;;;;9.70;6.80;;;;;;;0.14;81.42;100893.70;109670;1273;22394;-50
2023/12/04 09:41:04;;;;;;;13.30;7.50;;;;;;;0.18;80.16;100899.22;109594;1279;22816;-43
2023/12/04 09:43:48;;;;;;;11.20;6.80;;;;;;;0.16;79.88;100896.86;109524;1274;22705;-50
2023/12/04 09:46:16;;;;;;;12.00;7.60;;;;;;;0.20;80.03;100901.56;109624;1273;23269;-49
2023/12/04 09:48:43;;;;;;;13.00;7.70;;;;;;;0.30;80.04;100900.31;109368;1279;22373;-50
2023/12/04 09:51:11;;;;;;;10.90;7.30;;;;;;;0.40;79.82;100899.48;109831;1274;22817;-49
2023/12/04 09:53:41;;;;;;;13.80;7.80;;;;;;;0.49;79.57;100899.23;109217;1264;23283;-49
2023/12/04 09:56:12;;;;;;;12.90;8.10;;;;;;;0.57;78.92;100899.13;108259;1281;24271;-44
2023/12/04 09:58:46;;;;;;;11.90;7.60;;;;;;;0.54;77.31;100897.40;108955;1280;24287;-50
2023/12/04 10:01:16;;;;;;;11.70;7.60;;;;;;;0.41;77.38;100892.65;109545;1278;22482;-50
2023/12/04 10:03:52;;;;;;;12.90;8.10;;;;;;;0.40;77.93;100898.45;109224;1273;22620;-50
2023/12/04 10:06:19;;;;;;;12.00;8.10;;;;;;;0.51;78.03;100893.69;109433;1279;22531;-45
2023/12/04 10:08:46;;;;;;;12.40;8.30;;;;;;;0.61;77.96;100892.92;109580;1279;24958;-52
2023/12/04 10:11:15;;;;;;;10.90;8.10;;;;;;;0.79;76.56;100893.02;108981;1273;22627;-46
2023/12/04 10:13:48;;;;;;;11.80;7.50;;;;;;;1.18;75.43;100882.98;107697;1277;317920;-44
2023/12/04 10:16:46;;;;;;;15.80;8.00;;;;;;;1.71;74.82;100883.56;108279;1273;22252;-44
2023/12/04 10:19:23;;;;;;;10.30;6.70;;;;;;;2.22;72.73;100884.60;108904;1279;22533;-49
2023/12/04 10:21:50;;;;;;;10.30;7.20;;;;;;;2.47;70.87;100878.89;109010;1267;24269;-49
2023/12/04 10:24:35;;;;;;;13.80;7.80;;;;;;;2.51;70.29;100875.66;108249;1279;22396;-50
2023/12/04 10:27:08;;;;;;;12.90;8.10;;;;;;;2.55;70.18;100878.59;108559;1273;23364;-51
2023/12/04 10:29:47;;;;;;;11.80;7.30;;;;;;;2.69;69.87;100876.40;109273;1273;22857;-51
2023/12/04 10:33:05;;;;;;;12.10;8.00;;;;;;;2.95;68.86;100875.89;109415;1273;22382;-52
2023/12/04 10:49:56;;;;;;;10.10;7.10;;;;;;;2.28;68.13;100866.58;109734;1272;22413;-49
2023/12/04 10:53:43;;;;;;;11.10;7.00;;;;;;;2.32;68.66;100857.98;109587;1279;23584;-45
2023/12/04 11:01:00;;;;;;;10.70;7.10;;;;;;;2.11;68.28;100861.23;109870;1277;22424;-45
2023/12/04 11:03:48;;;;;;;10.10;6.60;;;;;;;2.32;67.77;100863.66;109415;1271;23065;-49
2023/12/04 11:10:38;;;;;;;8.90;5.90;;;;;;;2.55;67.13;100862.56;109247;1273;22470;-50
2023/12/04 11:13:58;;;;;;;11.30;6.50;;;;;;;2.26;68.13;100870.30;108826;1272;22432;-51
2023/12/04 11:29:40;;;;;;;10.00;6.80;;;;;;;0.55;73.57;100890.96;109122;1272;22295;-51
2023/12/04 11:33:14;;;;;;;10.20;6.60;;;;;;;0.49;74.16;100886.90;108958;1270;23465;-44
2023/12/04 11:36:38;;;;;;;12.20;6.90;;;;;;;0.52;75.16;100895.09;108916;1277;22584;-49
2023/12/04 11:39:10;;;;;;;10.10;7.10;;;;;;;0.57;75.64;100900.67;109585;1273;23089;-50
2023/12/04 11:41:43;;;;;;;13.10;7.60;;;;;;;0.56;74.93;100900.45;109098;1271;22558;-49
2023/12/04 11:44:14;;;;;;;12.50;7.40;;;;;;;0.51;75.14;100900.02;108778;1267;22517;-49
2023/12/04 11:47:03;;;;;;;10.10;6.70;;;;;;;0.46;75.84;100892.41;108304;1272;22824;-44
2023/12/04 11:49:39;;;;;;;11.90;7.20;;;;;;;0.43;76.50;100892.92;109421;1274;23880;-49
2023/12/04 11:52:07;;;;;;;13.60;7.90;;;;;;;0.42;77.41;100894.42;108500;1273;25097;-49
2023/12/04 11:55:14;;;;;;;12.60;7.20;;;;;;;0.42;78.04;100895.31;109324;1258;22288;-48
2023/12/04 11:58:01;;;;;;;12.20;7.20;;;;;;;0.40;77.12;100895.71;108995;1276;23676;-46
2023/12/04 12:00:44;;;;;;;11.20;7.70;;;;;;;0.35;77.60;100903.34;108837;1277;22608;-50
2023/12/04 12:03:14;;;;;;;13.00;7.60;;;;;;;0.31;77.82;100906.73;109436;1278;22468;-49
2023/12/04 12:05:50;;;;;;;12.40;7.80;;;;;;;0.27;78.43;100904.48;108871;1275;22527;-49
2023/12/04 12:08:20;;;;;;;12.40;8.60;;;;;;;0.22;78.26;100905.27;108596;1259;22435;-49
2023/12/04 12:10:57;;;;;;;12.50;7.30;;;;;;;0.16;78.79;100902.21;109258;1274;22815;-49
2023/12/04 12:13:29;;;;;;;11.80;8.20;;;;;;;0.15;78.89;100907.48;108472;1276;25520;-45
2023/12/04 12:16:03;;;;;;;13.20;7.50;;;;;;;0.15;79.19;100912.45;109347;1272;22470;-43
2023/12/04 12:19:08;;;;;;;12.70;8.00;;;;;;;0.14;79.48;100916.17;108962;1273;22700;-43
2023/12/04 12:21:37;;;;;;;13.00;7.70;;;;;;;0.11;79.50;100915.83;109129;1273;22568;-52
2023/12/04 12:24:06;;;;;;;14.30;9.80;;;;;;;0.08;79.66;100918.75;108475;1277;23232;-49
2023/12/04 12:26:33;;;;;;;15.60;8.80;;;;;;;0.06;80.36;100918.80;109042;1272;22248;-42
2023/12/04 12:29:00;;;;;;;29.80;15.60;;;;;;;0.04;80.90;100918.56;109304;1279;22240;-44
2023/12/04 12:31:29;;;;;;;21.20;11.90;;;;;;;0.04;81.61;100919.58;109231;1273;22611;-48
2023/12/04 12:34:04;;;;;;;14.40;9.10;;;;;;;0.02;81.47;100919.49;108319;1273;23554;-43
2023/12/04 12:36:32;;;;;;;15.90;9.50;;;;;;;-0.01;81.85;100917.98;109586;1279;22357;-44
2023/12/04 12:39:03;;;;;;;25.60;13.50;;;;;;;-0.01;82.04;100919.17;109524;1277;22376;-45
2023/12/04 12:41:33;;;;;;;15.40;8.30;;;;;;;-0.02;82.15;100922.92;109688;1277;23103;-43
2023/12/04 12:44:08;;;;;;;14.30;8.10;;;;;;;-0.05;82.40;100923.10;109579;1275;22885;-50
2023/12/04 12:46:37;;;;;;;11.30;6.90;;;;;;;-0.07;82.21;100925.21;109806;1275;22540;-42
2023/12/04 12:49:09;;;;;;;10.30;6.50;;;;;;;-0.07;82.77;100927.08;109707;1280;22221;-42
2023/12/04 12:51:36;;;;;;;11.20;7.30;;;;;;;-0.06;82.96;100922.32;109816;1275;22289;-43
2023/12/04 12:54:03;;;;;;;10.20;6.80;;;;;;;-0.06;83.14;100919.73;109902;1277;23074;-48
2023/12/04 12:56:31;;;;;;;10.70;6.70;;;;;;;-0.06;83.62;100921.33;109765;1272;22341;-49
2023/12/04 12:58:57;;;;;;;15.80;9.50;;;;;;;-0.05;83.80;100920.50;109744;1276;22332;-49
2023/12/04 13:01:27;;;;;;;17.60;10.10;;;;;;;-0.04;83.91;100923.67;109646;1278;22551;-43
2023/12/04 13:03:56;;;;;;;17.10;8.90;;;;;;;-0.01;84.23;100924.30;109736;1270;23192;-44
2023/12/04 13:06:23;;;;;;;13.80;8.40;;;;;;;0.01;84.30;100920.30;109800;1274;22223;-44
2023/12/04 13:08:50;;;;;;;12.30;8.20;;;;;;;0.03;84.32;100923.27;109628;1274;23072;-44
2023/12/04 13:11:17;;;;;;;11.00;7.40;;;;;;;0.04;84.60;100926.64;109910;1272;22201;-44
2023/12/04 13:13:44;;;;;;;15.30;9.10;;;;;;;0.04;84.52;100930.91;109488;1272;22841;-51
2023/12/04 13:16:11;;;;;;;12.90;8.20;;;;;;;0.01;84.15;100927.86;109542;1267;22305;-49
2023/12/04 13:18:38;;;;;;;13.30;8.30;;;;;;;-0.01;84.34;100929.80;109797;1270;23509;-48
2023/12/04 13:21:05;;;;;;;18.40;8.70;;;;;;;-0.01;84.58;100932.04;109595;1279;22926;-50
2023/12/04 13:23:32;;;;;;;15.30;8.50;;;;;;;0.01;84.66;100933.00;109778;1279;22179;-50
2023/12/04 13:25:59;;;;;;;16.50;8.50;;;;;;;0.03;84.07;100943.89;109874;1276;23145;-49
2023/12/04 13:28:25;;;;;;;15.50;8.80;;;;;;;0.02;84.17;100947.95;109846;1273;22206;-49
2023/12/04 13:31:04;;;;;;;13.10;8.20;;;;;;;0.00;84.67;100946.16;109947;1279;22924;-49
2023/12/04 13:33:31;;;;;;;13.50;7.80;;;;;;;0.01;85.04;100946.87;109318;1281;22773;-49
2023/12/04 13:35:59;;;;;;;15.60;9.80;;;;;;;0.02;85.29;100945.90;109956;1272;22376;-45
2023/12/04 13:38:26;;;;;;;15.30;8.70;;;;;;;0.03;85.45;100951.42;109847;1276;22370;-44
2023/12/04 13:43:52;;;;;;;19.30;11.80;;;;;;;0.04;85.33;100950.96;109939;1273;23245;-49
2023/12/04 13:46:19;;;;;;;19.80;10.90;;;;;;;0.06;85.40;100950.54;109961;1278;22456;-50
2023/12/04 13:48:46;;;;;;;19.50;11.40;;;;;;;0.07;85.46;100946.89;109909;1279;22335;-50
2023/12/04 13:51:13;;;;;;;18.20;10.90;;;;;;;0.08;85.27;100948.63;109938;1269;22396;-48
2023/12/04 13:53:44;;;;;;;18.30;11.40;;;;;;;0.06;85.38;100953.70;109904;1275;22480;-49
2023/12/04 13:58:53;;;;;;;20.50;13.00;;;;;;;0.08;85.70;100960.98;109957;1279;22589;-48
2023/12/04 14:01:23;;;;;;;21.70;13.70;;;;;;;0.08;85.92;100963.57;110042;1262;22378;-49
2023/12/04 14:03:51;;;;;;;19.10;11.50;;;;;;;0.12;86.28;100966.14;109985;1275;22406;-44
2023/12/04 14:06:36;;;;;;;16.90;11.00;;;;;;;0.17;86.44;100965.04;109976;1269;22847;-49
2023/12/04 14:09:21;;;;;;;21.90;12.00;;;;;;;0.17;86.21;100965.73;109995;1279;22495;-43
2023/12/04 14:11:47;;;;;;;18.70;11.50;;;;;;;0.17;86.47;100964.02;109948;1277;23088;-44
2023/12/04 14:14:14;;;;;;;20.50;10.80;;;;;;;0.17;86.63;100966.42;109975;1279;22249;-43
2023/12/04 14:16:41;;;;;;;17.50;10.70;;;;;;;0.17;86.33;100963.33;110062;1276;23263;-49
2023/12/04 14:19:08;;;;;;;20.40;11.30;;;;;;;0.17;86.67;100964.73;108971;1278;22225;-44
2023/12/04 14:21:35;;;;;;;16.00;10.10;;;;;;;0.17;86.69;100966.23;109846;1279;23024;-44
2023/12/04 14:24:02;;;;;;;21.70;11.30;;;;;;;0.17;86.73;100970.04;108080;1259;25445;-45
2023/12/04 14:26:30;;;;;;;21.30;13.10;;;;;;;0.17;86.91;100966.59;108255;1280;26729;-50
2023/12/04 14:28:57;;;;;;;21.80;12.20;;;;;;;0.17;86.96;100969.83;109935;1273;22467;-49
2023/12/04 14:31:25;;;;;;;21.20;13.60;;;;;;;0.17;87.08;100973.25;110021;1273;22275;-44
2023/12/04 14:33:53;;;;;;;25.10;13.00;;;;;;;0.15;86.66;100974.35;110098;1279;22345;-45
2023/12/04 14:36:20;;;;;;;24.50;13.40;;;;;;;0.13;87.12;100971.88;108507;1279;23054;-51
2023/12/04 14:38:47;;;;;;;20.60;12.50;;;;;;;0.15;86.83;100968.52;108702;1270;22348;-44
2023/12/04 14:41:14;;;;;;;24.30;13.60;;;;;;;0.15;87.07;100967.34;109031;1270;23363;-44
2023/12/04 14:43:42;;;;;;;21.40;12.20;;;;;;;0.15;87.32;100963.77;109447;1279;22277;-44
2023/12/04 14:46:09;;;;;;;24.00;13.20;;;;;;;0.18;87.65;100962.52;109577;1269;22648;-48
2023/12/04 14:48:38;;;;;;;27.40;15.00;;;;;;;0.19;87.58;100956.93;108868;1277;22365;-43
2023/12/04 14:51:05;;;;;;;22.60;12.70;;;;;;;0.23;87.92;100960.56;110026;1279;22332;-44
